LPAZ/SMA METAR and TAF weather

Enter ICAO airport designator
Station Type Date Time Source
LPAZ METAR 2022/09/28 18:30 UTC NOAA

LPAZ 281830Z 09007KT 060V120 9999 FEW020 SCT042 21/16 Q1027


Station Type Date Time Source
LPAZ Decoded METAR 2022/09/28 18:30 UTC NOAA

Santa Maria Acores , Portugal (LPAZ) 36-58N 025-10W 100M
Sep 28, 2022 - 02:30 PM EDT / 2022.09.28 1830 UTC
Wind: from the E (090 degrees) at 8 MPH (7 KT) (direction variable):0
Visibility: greater than 7 mile(s):0
Sky conditions: partly cloudy
Temperature: 69 F (21 C)
Dew Point: 60 F (16 C)
Relative Humidity: 73%
Pressure (altimeter): 30.33 in. Hg (1027 hPa)
ob: LPAZ 281830Z 09007KT 060V120 9999 FEW020 SCT042 21/16 Q1027
cycle: 18

Station Type Date Time Source
LPAZ TAF 2022/09/28 18:18 UTC NOAA

TAF TAF LPAZ 281700Z 2818/2924 07010KT 9999 FEW015 BKN040
TEMPO 2818/2918 SCT020 PROB30
TEMPO 2818/2824 8000 SHRA BKN015
BECMG 2821/2824 03010KT

Example: see airport list